Thursday, September 20, 2018, 6:53 PM EDT
Back to Local

KGNR, Greenville

Location: Greenville, ME, United States Lat: 45.467
Local Time: 6:53 PM EDT (22:53 GMT) Lon: -69.583
Time Zone: US/Eastern Elev: 1400 ft

Show me the last for .
Show Decoded

2018-09-20 17:56 METAR KGNR 202156Z AUTO 15003KT 12/10 A3023 RMK AO1 SLP245 T01220100 =
2018-09-20 16:56 METAR KGNR 202056Z AUTO VRB03KT 12/10 A3023 RMK AO1 SLP244 T01220100 56000 =
2018-09-20 15:56 METAR KGNR 201956Z AUTO 14004KT 13/09 A3023 RMK AO1 SLP245 T01280094 =
2018-09-20 14:56 METAR KGNR 201856Z AUTO 15004KT 12/09 A3023 RMK AO1 SLP243 T01220094 =
2018-09-20 13:56 METAR KGNR 201756Z AUTO VRB04KT 12/09 A3023 RMK AO1 SLP244 T01170089 10128 20078
                 58010 =
2018-09-20 12:56 METAR KGNR 201656Z AUTO 00000KT 12/08 A3025 RMK AO1 SLP249 T01220083 =
2018-09-20 11:56 METAR KGNR 201556Z AUTO 20004KT 12/08 A3024 RMK AO1 SLP248 T01220083 =
2018-09-20 10:56 METAR KGNR 201456Z AUTO VRB04KT 12/08 A3026 RMK AO1 SLP254 T01170083 51009 =
2018-09-20 09:56 METAR KGNR 201356Z AUTO VRB04KT 10/08 A3026 RMK AO1 SLP254 T01000078 =
2018-09-20 08:56 METAR KGNR 201256Z AUTO VRB04KT 09/07 A3025 RMK AO1 SLP250 T00940072 =
2018-09-20 07:56 METAR KGNR 201156Z AUTO 14004KT 08/07 A3023 RMK AO1 SLP246 70004 T00780072 10094
                 20072 53016 =
2018-09-20 06:56 METAR KGNR 201056Z AUTO 14003KT 08/07 A3021 RMK AO1 SLP240 T00780072 =
2018-09-20 05:56 METAR KGNR 200956Z AUTO 00000KT 08/07 A3019 RMK AO1 SLP230 T00780072 =
2018-09-20 04:56 METAR KGNR 200856Z AUTO 12006KT 08/07 A3018 RMK AO1 SLP228 T00780072 50005 =
2018-09-20 03:56 METAR KGNR 200756Z AUTO 11005KT 08/08 A3019 RMK AO1 SLP227 T00830078 =
2018-09-20 02:56 METAR KGNR 200656Z AUTO 12007KT 09/09 A3017 RMK AO1 SLP220 T00890089 =
2018-09-20 01:56 METAR KGNR 200556Z AUTO 11008KT 09/09 A3017 RMK AO1 SLP221 P0001 60001 T00940089
                 10111 20094 53007 =
2018-09-20 00:56 METAR KGNR 200456Z AUTO 11007KT 09/09 A3016 RMK AO1 SLP218 T00940089 401610089 =
2018-09-19 23:56 METAR KGNR 200356Z AUTO 11008KT 10/09 A3015 RMK AO1 SLP215 T01000094 =
2018-09-19 22:56 METAR KGNR 200256Z AUTO 12005KT 11/09 A3014 RMK AO1 SLP214 T01060094 51013 =
2018-09-19 21:56 METAR KGNR 200156Z AUTO 10005KT 11/09 A3014 RMK AO1 SLP212 T01060094 =
2018-09-19 20:56 METAR KGNR 200056Z AUTO 12004KT 11/10 A3013 RMK AO1 SLP210 T01110100 =
2018-09-19 19:56 METAR KGNR 192356Z AUTO 08003KT 11/10 A3011 RMK AO1 SLP202 60003 T01110100 10161
                 20111 51019 =
2018-09-19 18:56 METAR KGNR 192256Z AUTO 03006KT 11/11 A3009 RMK AO1 SLP195 P0003 T01110106 =

Support USWX by starting your Amazon purchase here.